This is the latest recevied weather packets stored in our database for station/object VE7GEL. If no packets are shown the sender has not sent any weather packets the latest 10 day(s).
| Time | Temp. | Humidity | Pressure | Rain* | Wind** | Luminosity | Snow |
|---|---|---|---|---|---|---|---|
| 1778026675 | 18.89° C | 61% | 1013.6 hPa | 0 mm | - | 462 W/m² | - |
| 1778025774 | 19.44° C | 60% | 1013.8 hPa | 0 mm | - | 510 W/m² | - |
| 1778024872 | 18.89° C | 60% | 1013.9 hPa | 0 mm | - | 554 W/m² | - |
| 1778024702 | 18.89° C | 61% | 1014.1 hPa | 0 mm | - | 563 W/m² | - |
| 1778023971 | 18.89° C | 60% | 1014 hPa | 0 mm | - | 598 W/m² | - |
| 1778023073 | 18.89° C | 60% | 1014.1 hPa | 0 mm | - | 642 W/m² | - |
| 1778022903 | 18.89° C | 62% | 1014.5 hPa | 0 mm | - | 649 W/m² | - |
| 1778022170 | 18.33° C | 67% | 1014.4 hPa | 0 mm | - | 677 W/m² | - |
| 1778022002 | 18.33° C | 66% | 1014.8 hPa | 0 mm | - | 684 W/m² | - |
| 1778021269 | 17.22° C | 70% | 1014.5 hPa | 0 mm | - | 712 W/m² | - |
| 1778020370 | 16.11° C | 74% | 1014.6 hPa | 0 mm | - | 741 W/m² | - |
| 1778019470 | 15.56° C | 76% | 1014.9 hPa | 0 mm | - | 797 W/m² | - |
| 1778019303 | 15.56° C | 76% | 1015.3 hPa | 0 mm | - | 787 W/m² | - |
| 1778018567 | 15° C | 78% | 1014.8 hPa | 0 mm | - | 507 W/m² | - |
| 1778017669 | 14.44° C | 79% | 1014.8 hPa | 0 mm | - | 52 W/m² | - |
| 1778017503 | 14.44° C | 80% | 1015.1 hPa | 0 mm | - | 51 W/m² | - |
| 1778016768 | 13.89° C | 81% | 1015 hPa | 0 mm | - | 49 W/m² | - |
| 1778016603 | 13.89° C | 82% | 1015.2 hPa | 0 mm | - | 48 W/m² | - |
| 1778015868 | 13.33° C | 84% | 1014.9 hPa | 0 mm | - | 48 W/m² | - |
| 1778015702 | 13.33° C | 83% | 1015.4 hPa | 0 mm | - | 47 W/m² | - |
| 1778014965 | 13.33° C | 85% | 1015 hPa | 0 mm | - | 46 W/m² | - |
| 1778014803 | 13.33° C | 84% | 1015.4 hPa | 0 mm | - | 45 W/m² | - |
| 1778014067 | 12.78° C | 86% | 1015.1 hPa | 0 mm | - | 44 W/m² | - |
| 1778013902 | 12.78° C | 86% | 1015.5 hPa | 0 mm | - | 44 W/m² | - |
| 1778013163 | 12.78° C | 86% | 1015.3 hPa | 0 mm | - | 42 W/m² | - |
* Rain latest hour (hover to see other rain measurements)
** Current wind speed in m/s (hover to see current wind gust speed)